sensor_id;sensor_type;location;lat;lon;timestamp;P1;durP1;ratioP1;P2;durP2;ratioP2
61685;SDS011;47592;45.904;8.978;2023-03-01T00:01:06;21.98;;;14.80;;
61685;SDS011;47592;45.904;8.978;2023-03-01T00:03:33;24.58;;;14.75;;
61685;SDS011;47592;45.904;8.978;2023-03-01T00:05:59;24.33;;;14.20;;
61685;SDS011;47592;45.904;8.978;2023-03-01T00:08:25;21.90;;;14.65;;
61685;SDS011;47592;45.904;8.978;2023-03-01T00:13:37;23.80;;;14.88;;
61685;SDS011;47592;45.904;8.978;2023-03-01T00:16:03;21.55;;;14.30;;
61685;SDS011;47592;45.904;8.978;2023-03-01T00:18:30;24.63;;;14.65;;
61685;SDS011;47592;45.904;8.978;2023-03-01T00:20:55;24.17;;;15.65;;
61685;SDS011;47592;45.904;8.978;2023-03-01T00:23:21;22.48;;;14.15;;
61685;SDS011;47592;45.904;8.978;2023-03-01T00:25:47;25.20;;;15.10;;
61685;SDS011;47592;45.904;8.978;2023-03-01T00:28:13;24.33;;;14.80;;
61685;SDS011;47592;45.904;8.978;2023-03-01T00:30:38;22.63;;;14.13;;
61685;SDS011;47592;45.904;8.978;2023-03-01T00:33:04;24.20;;;13.77;;
61685;SDS011;47592;45.904;8.978;2023-03-01T00:35:29;22.50;;;14.48;;
61685;SDS011;47592;45.904;8.978;2023-03-01T00:37:57;21.83;;;13.75;;
61685;SDS011;47592;45.904;8.978;2023-03-01T00:40:23;19.85;;;14.27;;
61685;SDS011;47592;45.904;8.978;2023-03-01T00:42:49;21.95;;;15.18;;
61685;SDS011;47592;45.904;8.978;2023-03-01T00:45:15;21.58;;;13.88;;
61685;SDS011;47592;45.904;8.978;2023-03-01T00:47:41;22.02;;;14.40;;
61685;SDS011;47592;45.904;8.978;2023-03-01T00:50:06;23.35;;;14.27;;
61685;SDS011;47592;45.904;8.978;2023-03-01T00:52:32;22.13;;;13.95;;
61685;SDS011;47592;45.904;8.978;2023-03-01T00:54:57;23.25;;;14.45;;
61685;SDS011;47592;45.904;8.978;2023-03-01T00:57:23;22.35;;;14.68;;
61685;SDS011;47592;45.904;8.978;2023-03-01T00:59:48;23.25;;;14.65;;
61685;SDS011;47592;45.904;8.978;2023-03-01T01:02:14;23.02;;;14.40;;
61685;SDS011;47592;45.904;8.978;2023-03-01T01:04:39;22.88;;;14.25;;
61685;SDS011;47592;45.904;8.978;2023-03-01T01:07:05;24.33;;;15.40;;
61685;SDS011;47592;45.904;8.978;2023-03-01T01:09:31;24.20;;;14.90;;
61685;SDS011;47592;45.904;8.978;2023-03-01T01:11:56;23.27;;;14.57;;
61685;SDS011;47592;45.904;8.978;2023-03-01T01:14:21;23.73;;;14.50;;
61685;SDS011;47592;45.904;8.978;2023-03-01T01:16:47;24.17;;;15.13;;
61685;SDS011;47592;45.904;8.978;2023-03-01T01:19:13;22.85;;;14.75;;
61685;SDS011;47592;45.904;8.978;2023-03-01T01:21:39;23.65;;;14.57;;
61685;SDS011;47592;45.904;8.978;2023-03-01T01:24:05;25.17;;;16.00;;
61685;SDS011;47592;45.904;8.978;2023-03-01T01:26:31;20.83;;;14.15;;
61685;SDS011;47592;45.904;8.978;2023-03-01T01:28:58;24.55;;;14.88;;
61685;SDS011;47592;45.904;8.978;2023-03-01T01:31:25;23.35;;;14.60;;
61685;SDS011;47592;45.904;8.978;2023-03-01T01:33:51;23.70;;;14.38;;
61685;SDS011;47592;45.904;8.978;2023-03-01T01:36:17;21.27;;;14.50;;
61685;SDS011;47592;45.904;8.978;2023-03-01T01:38:43;23.08;;;13.68;;
61685;SDS011;47592;45.904;8.978;2023-03-01T01:41:09;22.10;;;14.23;;
61685;SDS011;47592;45.904;8.978;2023-03-01T01:43:41;23.02;;;14.18;;
61685;SDS011;47592;45.904;8.978;2023-03-01T01:49:17;23.13;;;14.23;;
61685;SDS011;47592;45.904;8.978;2023-03-01T01:51:44;23.70;;;14.27;;
61685;SDS011;47592;45.904;8.978;2023-03-01T01:54:23;23.87;;;14.67;;
61685;SDS011;47592;45.904;8.978;2023-03-01T01:56:53;21.83;;;14.02;;
61685;SDS011;47592;45.904;8.978;2023-03-01T01:59:21;23.35;;;14.32;;
61685;SDS011;47592;45.904;8.978;2023-03-01T02:01:49;22.15;;;13.70;;
61685;SDS011;47592;45.904;8.978;2023-03-01T02:04:16;25.58;;;15.07;;
61685;SDS011;47592;45.904;8.978;2023-03-01T02:06:44;24.42;;;14.90;;
61685;SDS011;47592;45.904;8.978;2023-03-01T02:09:15;22.95;;;14.13;;
61685;SDS011;47592;45.904;8.978;2023-03-01T02:11:41;23.30;;;15.18;;
61685;SDS011;47592;45.904;8.978;2023-03-01T02:14:08;20.55;;;13.85;;
61685;SDS011;47592;45.904;8.978;2023-03-01T02:16:34;22.15;;;14.20;;
61685;SDS011;47592;45.904;8.978;2023-03-01T02:19:00;22.27;;;14.85;;
61685;SDS011;47592;45.904;8.978;2023-03-01T02:21:41;23.13;;;14.60;;
61685;SDS011;47592;45.904;8.978;2023-03-01T02:24:21;21.83;;;13.90;;
61685;SDS011;47592;45.904;8.978;2023-03-01T02:26:55;19.95;;;13.55;;
61685;SDS011;47592;45.904;8.978;2023-03-01T02:29:22;22.88;;;13.93;;
61685;SDS011;47592;45.904;8.978;2023-03-01T02:31:49;22.85;;;13.98;;
61685;SDS011;47592;45.904;8.978;2023-03-01T02:34:20;21.15;;;13.88;;
61685;SDS011;47592;45.904;8.978;2023-03-01T02:39:18;22.00;;;14.25;;
61685;SDS011;47592;45.904;8.978;2023-03-01T02:44:13;22.00;;;13.82;;
61685;SDS011;47592;45.904;8.978;2023-03-01T02:46:43;22.83;;;14.73;;
61685;SDS011;47592;45.904;8.978;2023-03-01T02:54:33;23.10;;;14.27;;
61685;SDS011;47592;45.904;8.978;2023-03-01T02:57:05;23.67;;;15.20;;
61685;SDS011;47592;45.904;8.978;2023-03-01T02:59:33;22.95;;;14.38;;
61685;SDS011;47592;45.904;8.978;2023-03-01T03:02:04;22.15;;;14.20;;
61685;SDS011;47592;45.904;8.978;2023-03-01T03:04:30;24.40;;;15.18;;
61685;SDS011;47592;45.904;8.978;2023-03-01T03:06:56;22.08;;;14.15;;
61685;SDS011;47592;45.904;8.978;2023-03-01T03:09:22;23.75;;;13.95;;
61685;SDS011;47592;45.904;8.978;2023-03-01T03:11:48;21.77;;;14.48;;
61685;SDS011;47592;45.904;8.978;2023-03-01T03:14:14;20.83;;;13.77;;
61685;SDS011;47592;45.904;8.978;2023-03-01T03:16:44;23.27;;;14.32;;
61685;SDS011;47592;45.904;8.978;2023-03-01T03:19:11;22.60;;;14.20;;
61685;SDS011;47592;45.904;8.978;2023-03-01T03:21:36;23.42;;;15.13;;
61685;SDS011;47592;45.904;8.978;2023-03-01T03:24:02;22.83;;;14.68;;
61685;SDS011;47592;45.904;8.978;2023-03-01T03:26:28;21.80;;;13.73;;
61685;SDS011;47592;45.904;8.978;2023-03-01T03:28:54;24.30;;;14.50;;
61685;SDS011;47592;45.904;8.978;2023-03-01T03:31:19;23.63;;;14.07;;
61685;SDS011;47592;45.904;8.978;2023-03-01T03:33:45;23.02;;;13.60;;
61685;SDS011;47592;45.904;8.978;2023-03-01T03:36:14;23.10;;;14.38;;
61685;SDS011;47592;45.904;8.978;2023-03-01T03:38:43;21.98;;;13.98;;
61685;SDS011;47592;45.904;8.978;2023-03-01T03:41:09;22.85;;;14.50;;
61685;SDS011;47592;45.904;8.978;2023-03-01T03:43:35;22.30;;;13.88;;
61685;SDS011;47592;45.904;8.978;2023-03-01T03:46:02;23.48;;;15.02;;
61685;SDS011;47592;45.904;8.978;2023-03-01T03:48:35;30.88;;;15.25;;
61685;SDS011;47592;45.904;8.978;2023-03-01T03:51:02;25.17;;;14.85;;
61685;SDS011;47592;45.904;8.978;2023-03-01T03:53:30;22.35;;;14.07;;
61685;SDS011;47592;45.904;8.978;2023-03-01T03:55:56;22.27;;;14.40;;
61685;SDS011;47592;45.904;8.978;2023-03-01T03:58:22;22.92;;;14.85;;
61685;SDS011;47592;45.904;8.978;2023-03-01T04:00:50;23.45;;;14.60;;
61685;SDS011;47592;45.904;8.978;2023-03-01T04:03:18;24.35;;;13.77;;
61685;SDS011;47592;45.904;8.978;2023-03-01T04:05:45;23.60;;;14.35;;
61685;SDS011;47592;45.904;8.978;2023-03-01T04:08:11;23.38;;;15.20;;
61685;SDS011;47592;45.904;8.978;2023-03-01T04:10:41;25.23;;;14.32;;
61685;SDS011;47592;45.904;8.978;2023-03-01T04:13:10;24.45;;;15.18;;
61685;SDS011;47592;45.904;8.978;2023-03-01T04:15:37;24.63;;;15.53;;
61685;SDS011;47592;45.904;8.978;2023-03-01T04:18:03;22.60;;;14.77;;
61685;SDS011;47592;45.904;8.978;2023-03-01T04:20:30;24.67;;;14.68;;
61685;SDS011;47592;45.904;8.978;2023-03-01T04:22:59;28.05;;;15.23;;
61685;SDS011;47592;45.904;8.978;2023-03-01T04:28:07;21.10;;;13.35;;
61685;SDS011;47592;45.904;8.978;2023-03-01T04:30:34;23.10;;;13.93;;
61685;SDS011;47592;45.904;8.978;2023-03-01T04:33:04;24.85;;;14.40;;
61685;SDS011;47592;45.904;8.978;2023-03-01T04:35:31;22.90;;;14.95;;
61685;SDS011;47592;45.904;8.978;2023-03-01T04:37:57;30.70;;;15.98;;
61685;SDS011;47592;45.904;8.978;2023-03-01T04:40:22;23.92;;;15.40;;
61685;SDS011;47592;45.904;8.978;2023-03-01T04:42:47;24.98;;;15.70;;
61685;SDS011;47592;45.904;8.978;2023-03-01T04:45:13;24.95;;;15.30;;
61685;SDS011;47592;45.904;8.978;2023-03-01T04:47:39;27.10;;;15.70;;
61685;SDS011;47592;45.904;8.978;2023-03-01T04:50:05;25.35;;;14.82;;
61685;SDS011;47592;45.904;8.978;2023-03-01T04:52:31;25.08;;;15.77;;
61685;SDS011;47592;45.904;8.978;2023-03-01T04:54:57;25.60;;;15.82;;
61685;SDS011;47592;45.904;8.978;2023-03-01T04:57:22;25.88;;;16.30;;
61685;SDS011;47592;45.904;8.978;2023-03-01T04:59:47;28.63;;;16.50;;
61685;SDS011;47592;45.904;8.978;2023-03-01T05:02:13;26.20;;;16.60;;
61685;SDS011;47592;45.904;8.978;2023-03-01T05:04:39;25.08;;;15.48;;
61685;SDS011;47592;45.904;8.978;2023-03-01T05:07:04;24.10;;;14.90;;
61685;SDS011;47592;45.904;8.978;2023-03-01T05:09:29;23.50;;;15.23;;
61685;SDS011;47592;45.904;8.978;2023-03-01T05:11:55;27.92;;;16.88;;
61685;SDS011;47592;45.904;8.978;2023-03-01T05:14:20;26.17;;;15.63;;
61685;SDS011;47592;45.904;8.978;2023-03-01T05:16:46;28.15;;;16.58;;
61685;SDS011;47592;45.904;8.978;2023-03-01T05:19:12;26.88;;;15.80;;
61685;SDS011;47592;45.904;8.978;2023-03-01T05:21:40;27.40;;;16.75;;
61685;SDS011;47592;45.904;8.978;2023-03-01T05:24:25;27.15;;;14.90;;
61685;SDS011;47592;45.904;8.978;2023-03-01T05:26:50;24.70;;;15.98;;
61685;SDS011;47592;45.904;8.978;2023-03-01T05:29:19;30.70;;;16.13;;
61685;SDS011;47592;45.904;8.978;2023-03-01T05:31:52;27.13;;;16.90;;
61685;SDS011;47592;45.904;8.978;2023-03-01T05:34:18;28.48;;;17.52;;
61685;SDS011;47592;45.904;8.978;2023-03-01T05:36:47;30.35;;;17.60;;
61685;SDS011;47592;45.904;8.978;2023-03-01T05:39:13;27.63;;;16.48;;
61685;SDS011;47592;45.904;8.978;2023-03-01T05:41:38;27.50;;;16.58;;
61685;SDS011;47592;45.904;8.978;2023-03-01T05:44:06;31.38;;;17.65;;
61685;SDS011;47592;45.904;8.978;2023-03-01T05:46:31;29.13;;;17.23;;
61685;SDS011;47592;45.904;8.978;2023-03-01T05:48:57;29.88;;;18.10;;
61685;SDS011;47592;45.904;8.978;2023-03-01T05:51:22;31.42;;;18.40;;
61685;SDS011;47592;45.904;8.978;2023-03-01T05:53:47;32.33;;;17.83;;
61685;SDS011;47592;45.904;8.978;2023-03-01T05:56:13;30.95;;;17.73;;
61685;SDS011;47592;45.904;8.978;2023-03-01T05:58:38;31.35;;;17.52;;
61685;SDS011;47592;45.904;8.978;2023-03-01T06:01:04;29.73;;;18.75;;
61685;SDS011;47592;45.904;8.978;2023-03-01T06:03:29;29.48;;;17.83;;
61685;SDS011;47592;45.904;8.978;2023-03-01T06:05:55;28.23;;;17.65;;
61685;SDS011;47592;45.904;8.978;2023-03-01T06:08:21;26.75;;;16.70;;
61685;SDS011;47592;45.904;8.978;2023-03-01T06:10:47;26.67;;;17.13;;
61685;SDS011;47592;45.904;8.978;2023-03-01T06:13:12;28.73;;;17.33;;
61685;SDS011;47592;45.904;8.978;2023-03-01T06:15:38;34.72;;;18.42;;
61685;SDS011;47592;45.904;8.978;2023-03-01T06:18:03;31.50;;;19.42;;
61685;SDS011;47592;45.904;8.978;2023-03-01T06:20:29;31.60;;;16.52;;
61685;SDS011;47592;45.904;8.978;2023-03-01T06:22:54;30.02;;;17.77;;
61685;SDS011;47592;45.904;8.978;2023-03-01T06:25:20;28.65;;;16.85;;
61685;SDS011;47592;45.904;8.978;2023-03-01T06:27:47;31.35;;;19.52;;
61685;SDS011;47592;45.904;8.978;2023-03-01T06:30:14;30.20;;;17.45;;
61685;SDS011;47592;45.904;8.978;2023-03-01T06:32:41;29.02;;;17.63;;
61685;SDS011;47592;45.904;8.978;2023-03-01T06:35:07;37.75;;;17.75;;
61685;SDS011;47592;45.904;8.978;2023-03-01T06:37:34;35.08;;;18.95;;
61685;SDS011;47592;45.904;8.978;2023-03-01T06:40:00;32.08;;;18.17;;
61685;SDS011;47592;45.904;8.978;2023-03-01T06:42:31;30.30;;;17.55;;
61685;SDS011;47592;45.904;8.978;2023-03-01T06:44:57;30.55;;;16.83;;
61685;SDS011;47592;45.904;8.978;2023-03-01T06:47:22;34.08;;;19.27;;
61685;SDS011;47592;45.904;8.978;2023-03-01T06:49:48;29.83;;;17.80;;
61685;SDS011;47592;45.904;8.978;2023-03-01T06:52:13;31.58;;;18.35;;
61685;SDS011;47592;45.904;8.978;2023-03-01T06:54:38;33.80;;;19.13;;
61685;SDS011;47592;45.904;8.978;2023-03-01T06:57:04;33.83;;;19.73;;
61685;SDS011;47592;45.904;8.978;2023-03-01T06:59:29;34.97;;;21.00;;
61685;SDS011;47592;45.904;8.978;2023-03-01T07:01:55;33.85;;;20.83;;
61685;SDS011;47592;45.904;8.978;2023-03-01T07:04:20;33.92;;;19.52;;
61685;SDS011;47592;45.904;8.978;2023-03-01T07:06:46;33.15;;;19.05;;
61685;SDS011;47592;45.904;8.978;2023-03-01T07:09:17;30.40;;;18.80;;
61685;SDS011;47592;45.904;8.978;2023-03-01T07:11:44;29.23;;;18.35;;
61685;SDS011;47592;45.904;8.978;2023-03-01T07:14:10;31.58;;;18.45;;
61685;SDS011;47592;45.904;8.978;2023-03-01T07:16:35;35.70;;;19.67;;
61685;SDS011;47592;45.904;8.978;2023-03-01T07:19:00;35.38;;;19.63;;
61685;SDS011;47592;45.904;8.978;2023-03-01T07:21:26;36.88;;;19.80;;
61685;SDS011;47592;45.904;8.978;2023-03-01T07:23:51;37.17;;;20.02;;
61685;SDS011;47592;45.904;8.978;2023-03-01T07:26:17;36.53;;;21.10;;
61685;SDS011;47592;45.904;8.978;2023-03-01T07:28:42;32.92;;;19.70;;
61685;SDS011;47592;45.904;8.978;2023-03-01T07:31:07;34.65;;;20.33;;
61685;SDS011;47592;45.904;8.978;2023-03-01T07:33:33;32.88;;;19.60;;
61685;SDS011;47592;45.904;8.978;2023-03-01T07:35:58;35.28;;;19.92;;
61685;SDS011;47592;45.904;8.978;2023-03-01T07:38:25;37.42;;;20.48;;
61685;SDS011;47592;45.904;8.978;2023-03-01T07:40:51;33.72;;;20.05;;
61685;SDS011;47592;45.904;8.978;2023-03-01T07:43:17;34.95;;;19.63;;
61685;SDS011;47592;45.904;8.978;2023-03-01T07:45:42;32.70;;;19.48;;
61685;SDS011;47592;45.904;8.978;2023-03-01T07:48:08;36.13;;;20.23;;
61685;SDS011;47592;45.904;8.978;2023-03-01T07:50:34;35.10;;;20.27;;
61685;SDS011;47592;45.904;8.978;2023-03-01T07:53:00;36.13;;;19.63;;
61685;SDS011;47592;45.904;8.978;2023-03-01T07:55:25;37.28;;;21.20;;
61685;SDS011;47592;45.904;8.978;2023-03-01T07:57:51;33.63;;;20.05;;
61685;SDS011;47592;45.904;8.978;2023-03-01T08:00:16;31.55;;;18.92;;
61685;SDS011;47592;45.904;8.978;2023-03-01T08:02:42;30.77;;;19.50;;
61685;SDS011;47592;45.904;8.978;2023-03-01T08:05:08;32.80;;;18.20;;
61685;SDS011;47592;45.904;8.978;2023-03-01T08:07:34;29.58;;;18.67;;
61685;SDS011;47592;45.904;8.978;2023-03-01T08:10:00;27.48;;;17.52;;
61685;SDS011;47592;45.904;8.978;2023-03-01T08:12:25;25.85;;;17.63;;
61685;SDS011;47592;45.904;8.978;2023-03-01T08:14:53;29.55;;;19.08;;
61685;SDS011;47592;45.904;8.978;2023-03-01T08:17:18;28.27;;;18.40;;
61685;SDS011;47592;45.904;8.978;2023-03-01T08:19:44;29.63;;;17.52;;
61685;SDS011;47592;45.904;8.978;2023-03-01T08:22:10;26.25;;;16.90;;
61685;SDS011;47592;45.904;8.978;2023-03-01T08:24:35;29.02;;;17.77;;
61685;SDS011;47592;45.904;8.978;2023-03-01T08:27:00;26.92;;;16.83;;
61685;SDS011;47592;45.904;8.978;2023-03-01T08:29:27;25.25;;;16.00;;
61685;SDS011;47592;45.904;8.978;2023-03-01T08:31:53;26.85;;;16.65;;
61685;SDS011;47592;45.904;8.978;2023-03-01T08:34:18;24.95;;;15.80;;
61685;SDS011;47592;45.904;8.978;2023-03-01T08:36:44;24.90;;;15.85;;
61685;SDS011;47592;45.904;8.978;2023-03-01T08:39:12;26.35;;;15.98;;
61685;SDS011;47592;45.904;8.978;2023-03-01T08:41:39;25.48;;;15.82;;
61685;SDS011;47592;45.904;8.978;2023-03-01T08:44:05;26.90;;;16.60;;
61685;SDS011;47592;45.904;8.978;2023-03-01T08:46:38;25.20;;;16.13;;
61685;SDS011;47592;45.904;8.978;2023-03-01T08:49:08;28.27;;;17.58;;
61685;SDS011;47592;45.904;8.978;2023-03-01T08:51:36;27.38;;;17.48;;
61685;SDS011;47592;45.904;8.978;2023-03-01T08:54:05;26.73;;;17.15;;
61685;SDS011;47592;45.904;8.978;2023-03-01T08:56:32;27.58;;;18.17;;
61685;SDS011;47592;45.904;8.978;2023-03-01T08:58:58;26.95;;;17.50;;
61685;SDS011;47592;45.904;8.978;2023-03-01T09:01:23;26.02;;;16.70;;
61685;SDS011;47592;45.904;8.978;2023-03-01T09:03:48;29.38;;;16.50;;
61685;SDS011;47592;45.904;8.978;2023-03-01T09:06:14;27.65;;;16.55;;
61685;SDS011;47592;45.904;8.978;2023-03-01T09:08:44;28.50;;;17.73;;
61685;SDS011;47592;45.904;8.978;2023-03-01T09:11:12;26.27;;;17.50;;
61685;SDS011;47592;45.904;8.978;2023-03-01T09:13:40;27.50;;;17.70;;
61685;SDS011;47592;45.904;8.978;2023-03-01T09:16:06;26.65;;;16.83;;
61685;SDS011;47592;45.904;8.978;2023-03-01T09:18:32;24.48;;;16.10;;
61685;SDS011;47592;45.904;8.978;2023-03-01T09:21:05;26.23;;;17.15;;
61685;SDS011;47592;45.904;8.978;2023-03-01T09:23:39;26.52;;;15.45;;
61685;SDS011;47592;45.904;8.978;2023-03-01T09:26:06;28.20;;;15.88;;
61685;SDS011;47592;45.904;8.978;2023-03-01T09:28:33;27.23;;;16.60;;
61685;SDS011;47592;45.904;8.978;2023-03-01T09:31:00;26.73;;;16.65;;
61685;SDS011;47592;45.904;8.978;2023-03-01T09:33:28;27.70;;;16.30;;
61685;SDS011;47592;45.904;8.978;2023-03-01T09:35:58;26.10;;;17.13;;
61685;SDS011;47592;45.904;8.978;2023-03-01T09:38:23;26.43;;;17.13;;
61685;SDS011;47592;45.904;8.978;2023-03-01T09:40:49;28.20;;;17.08;;
61685;SDS011;47592;45.904;8.978;2023-03-01T09:46:06;29.27;;;17.13;;
61685;SDS011;47592;45.904;8.978;2023-03-01T09:48:37;28.23;;;16.83;;
61685;SDS011;47592;45.904;8.978;2023-03-01T09:51:08;25.70;;;16.35;;
61685;SDS011;47592;45.904;8.978;2023-03-01T09:53:38;25.52;;;16.15;;
61685;SDS011;47592;45.904;8.978;2023-03-01T09:56:05;27.65;;;16.65;;
61685;SDS011;47592;45.904;8.978;2023-03-01T10:04:05;27.67;;;16.40;;
61685;SDS011;47592;45.904;8.978;2023-03-01T10:06:34;25.50;;;14.98;;
61685;SDS011;47592;45.904;8.978;2023-03-01T10:09:10;24.25;;;16.20;;
61685;SDS011;47592;45.904;8.978;2023-03-01T10:11:39;27.38;;;16.25;;
61685;SDS011;47592;45.904;8.978;2023-03-01T10:22:03;24.77;;;15.13;;
61685;SDS011;47592;45.904;8.978;2023-03-01T10:24:34;26.23;;;16.33;;
61685;SDS011;47592;45.904;8.978;2023-03-01T10:27:22;27.40;;;16.77;;
61685;SDS011;47592;45.904;8.978;2023-03-01T10:32:23;27.02;;;15.35;;
61685;SDS011;47592;45.904;8.978;2023-03-01T10:34:49;26.48;;;15.60;;
61685;SDS011;47592;45.904;8.978;2023-03-01T10:37:19;27.40;;;16.83;;
61685;SDS011;47592;45.904;8.978;2023-03-01T10:42:30;23.15;;;15.30;;
61685;SDS011;47592;45.904;8.978;2023-03-01T10:44:58;25.08;;;14.68;;
61685;SDS011;47592;45.904;8.978;2023-03-01T10:47:26;26.25;;;15.07;;
61685;SDS011;47592;45.904;8.978;2023-03-01T10:50:05;25.42;;;15.15;;
61685;SDS011;47592;45.904;8.978;2023-03-01T10:52:42;26.05;;;15.73;;
61685;SDS011;47592;45.904;8.978;2023-03-01T10:55:26;25.48;;;16.38;;
61685;SDS011;47592;45.904;8.978;2023-03-01T10:58:11;25.48;;;14.82;;
61685;SDS011;47592;45.904;8.978;2023-03-01T11:00:54;26.52;;;14.85;;
61685;SDS011;47592;45.904;8.978;2023-03-01T11:08:34;25.58;;;16.02;;
61685;SDS011;47592;45.904;8.978;2023-03-01T11:13:50;28.45;;;17.20;;
61685;SDS011;47592;45.904;8.978;2023-03-01T11:16:37;30.02;;;17.27;;
61685;SDS011;47592;45.904;8.978;2023-03-01T11:24:09;25.30;;;16.85;;
61685;SDS011;47592;45.904;8.978;2023-03-01T11:29:04;26.42;;;16.38;;
61685;SDS011;47592;45.904;8.978;2023-03-01T11:31:31;23.92;;;15.75;;
61685;SDS011;47592;45.904;8.978;2023-03-01T11:34:04;24.17;;;15.18;;
61685;SDS011;47592;45.904;8.978;2023-03-01T11:41:48;20.02;;;12.93;;
61685;SDS011;47592;45.904;8.978;2023-03-01T11:44:22;20.27;;;12.13;;
61685;SDS011;47592;45.904;8.978;2023-03-01T12:14:32;17.85;;;10.65;;
61685;SDS011;47592;45.904;8.978;2023-03-01T12:23:16;14.75;;;9.48;;
61685;SDS011;47592;45.904;8.978;2023-03-01T12:25:53;16.35;;;10.13;;
61685;SDS011;47592;45.904;8.978;2023-03-01T12:28:39;14.50;;;9.02;;
61685;SDS011;47592;45.904;8.978;2023-03-01T12:36:46;18.92;;;11.25;;
61685;SDS011;47592;45.904;8.978;2023-03-01T12:50:42;22.50;;;13.00;;
61685;SDS011;47592;45.904;8.978;2023-03-01T12:53:25;21.08;;;12.63;;
61685;SDS011;47592;45.904;8.978;2023-03-01T12:55:56;20.25;;;13.70;;
61685;SDS011;47592;45.904;8.978;2023-03-01T13:06:50;21.63;;;13.73;;
61685;SDS011;47592;45.904;8.978;2023-03-01T13:11:46;24.05;;;14.90;;
61685;SDS011;47592;45.904;8.978;2023-03-01T13:16:46;23.15;;;15.18;;
61685;SDS011;47592;45.904;8.978;2023-03-01T13:21:46;19.95;;;13.63;;
61685;SDS011;47592;45.904;8.978;2023-03-01T13:24:57;19.30;;;13.95;;
61685;SDS011;47592;45.904;8.978;2023-03-01T13:29:31;22.45;;;14.63;;
61685;SDS011;47592;45.904;8.978;2023-03-01T13:32:29;22.65;;;15.02;;
61685;SDS011;47592;45.904;8.978;2023-03-01T13:35:01;20.17;;;13.30;;
61685;SDS011;47592;45.904;8.978;2023-03-01T13:37:36;21.40;;;14.10;;
61685;SDS011;47592;45.904;8.978;2023-03-01T13:45:23;21.90;;;12.73;;
61685;SDS011;47592;45.904;8.978;2023-03-01T13:50:50;20.05;;;12.88;;
61685;SDS011;47592;45.904;8.978;2023-03-01T13:55:45;16.85;;;11.20;;
61685;SDS011;47592;45.904;8.978;2023-03-01T13:58:18;20.38;;;12.57;;
61685;SDS011;47592;45.904;8.978;2023-03-01T14:00:44;20.50;;;12.30;;
61685;SDS011;47592;45.904;8.978;2023-03-01T14:05:40;19.45;;;11.98;;
61685;SDS011;47592;45.904;8.978;2023-03-01T14:08:18;18.85;;;12.05;;
61685;SDS011;47592;45.904;8.978;2023-03-01T14:10:54;20.42;;;13.55;;
61685;SDS011;47592;45.904;8.978;2023-03-01T14:13:28;21.33;;;13.23;;
61685;SDS011;47592;45.904;8.978;2023-03-01T14:21:39;21.23;;;12.60;;
61685;SDS011;47592;45.904;8.978;2023-03-01T14:24:04;25.25;;;12.82;;
61685;SDS011;47592;45.904;8.978;2023-03-01T14:26:30;19.67;;;12.63;;
61685;SDS011;47592;45.904;8.978;2023-03-01T14:28:57;23.42;;;11.63;;
61685;SDS011;47592;45.904;8.978;2023-03-01T14:31:34;17.02;;;11.77;;
61685;SDS011;47592;45.904;8.978;2023-03-01T14:34:01;20.97;;;12.43;;
61685;SDS011;47592;45.904;8.978;2023-03-01T14:36:28;18.55;;;11.50;;
61685;SDS011;47592;45.904;8.978;2023-03-01T14:38:55;20.45;;;11.90;;
61685;SDS011;47592;45.904;8.978;2023-03-01T14:41:24;18.45;;;11.52;;
61685;SDS011;47592;45.904;8.978;2023-03-01T14:43:52;19.50;;;12.25;;
61685;SDS011;47592;45.904;8.978;2023-03-01T14:46:23;20.60;;;11.60;;
61685;SDS011;47592;45.904;8.978;2023-03-01T14:48:51;20.58;;;12.50;;
61685;SDS011;47592;45.904;8.978;2023-03-01T14:51:18;19.35;;;12.27;;
61685;SDS011;47592;45.904;8.978;2023-03-01T14:53:44;22.08;;;12.15;;
61685;SDS011;47592;45.904;8.978;2023-03-01T14:56:13;19.52;;;12.13;;
61685;SDS011;47592;45.904;8.978;2023-03-01T14:58:40;20.70;;;12.30;;
61685;SDS011;47592;45.904;8.978;2023-03-01T15:01:06;21.40;;;12.57;;
61685;SDS011;47592;45.904;8.978;2023-03-01T15:03:43;20.45;;;12.80;;
61685;SDS011;47592;45.904;8.978;2023-03-01T15:06:10;23.58;;;13.32;;
61685;SDS011;47592;45.904;8.978;2023-03-01T15:08:37;21.15;;;12.95;;
61685;SDS011;47592;45.904;8.978;2023-03-01T15:13:38;21.45;;;12.50;;
61685;SDS011;47592;45.904;8.978;2023-03-01T15:18:35;19.55;;;11.80;;
61685;SDS011;47592;45.904;8.978;2023-03-01T15:23:50;21.92;;;12.13;;
61685;SDS011;47592;45.904;8.978;2023-03-01T15:28:55;20.50;;;12.15;;
61685;SDS011;47592;45.904;8.978;2023-03-01T15:31:36;25.42;;;13.90;;
61685;SDS011;47592;45.904;8.978;2023-03-01T15:34:49;22.58;;;13.50;;
61685;SDS011;47592;45.904;8.978;2023-03-01T15:37:03;19.67;;;12.40;;
61685;SDS011;47592;45.904;8.978;2023-03-01T15:45:07;19.35;;;12.10;;
61685;SDS011;47592;45.904;8.978;2023-03-01T15:47:40;20.98;;;11.55;;
61685;SDS011;47592;45.904;8.978;2023-03-01T15:50:16;22.17;;;11.77;;
61685;SDS011;47592;45.904;8.978;2023-03-01T15:52:44;19.92;;;12.32;;
61685;SDS011;47592;45.904;8.978;2023-03-01T15:55:17;20.20;;;12.98;;
61685;SDS011;47592;45.904;8.978;2023-03-01T15:58:00;21.15;;;11.60;;
61685;SDS011;47592;45.904;8.978;2023-03-01T16:00:32;21.60;;;12.63;;
61685;SDS011;47592;45.904;8.978;2023-03-01T16:02:58;22.00;;;12.90;;
61685;SDS011;47592;45.904;8.978;2023-03-01T16:05:28;20.63;;;13.10;;
61685;SDS011;47592;45.904;8.978;2023-03-01T16:07:55;22.63;;;12.93;;
61685;SDS011;47592;45.904;8.978;2023-03-01T16:10:21;23.02;;;12.68;;
61685;SDS011;47592;45.904;8.978;2023-03-01T16:12:47;21.60;;;13.15;;
61685;SDS011;47592;45.904;8.978;2023-03-01T16:15:20;19.67;;;11.95;;
61685;SDS011;47592;45.904;8.978;2023-03-01T16:17:48;21.15;;;12.73;;
61685;SDS011;47592;45.904;8.978;2023-03-01T16:20:13;20.88;;;12.98;;
61685;SDS011;47592;45.904;8.978;2023-03-01T16:22:42;23.65;;;13.15;;
61685;SDS011;47592;45.904;8.978;2023-03-01T16:25:09;22.77;;;13.15;;
61685;SDS011;47592;45.904;8.978;2023-03-01T16:27:35;24.92;;;14.30;;
61685;SDS011;47592;45.904;8.978;2023-03-01T16:30:01;23.48;;;13.90;;
61685;SDS011;47592;45.904;8.978;2023-03-01T16:32:26;22.50;;;14.32;;
61685;SDS011;47592;45.904;8.978;2023-03-01T16:34:52;21.83;;;13.88;;
61685;SDS011;47592;45.904;8.978;2023-03-01T16:37:17;23.77;;;13.30;;
61685;SDS011;47592;45.904;8.978;2023-03-01T16:39:44;19.25;;;13.10;;
61685;SDS011;47592;45.904;8.978;2023-03-01T16:42:09;21.38;;;12.73;;
61685;SDS011;47592;45.904;8.978;2023-03-01T16:44:34;20.73;;;13.02;;
61685;SDS011;47592;45.904;8.978;2023-03-01T16:47:00;19.83;;;12.48;;
61685;SDS011;47592;45.904;8.978;2023-03-01T16:49:25;20.17;;;12.63;;
61685;SDS011;47592;45.904;8.978;2023-03-01T16:51:53;19.38;;;12.55;;
61685;SDS011;47592;45.904;8.978;2023-03-01T16:54:18;19.20;;;11.80;;
61685;SDS011;47592;45.904;8.978;2023-03-01T16:56:44;20.67;;;12.38;;
61685;SDS011;47592;45.904;8.978;2023-03-01T16:59:09;22.02;;;13.45;;
61685;SDS011;47592;45.904;8.978;2023-03-01T17:01:35;21.48;;;13.20;;
61685;SDS011;47592;45.904;8.978;2023-03-01T17:04:05;21.73;;;13.95;;
61685;SDS011;47592;45.904;8.978;2023-03-01T17:06:31;22.25;;;14.23;;
61685;SDS011;47592;45.904;8.978;2023-03-01T17:08:57;24.17;;;13.75;;
61685;SDS011;47592;45.904;8.978;2023-03-01T17:11:24;22.05;;;13.70;;